createdAt,value
2022-10-12T00:03:13.403Z,3.67
2022-10-12T00:08:36.326Z,3.83
2022-10-12T00:13:58.833Z,3.80
2022-10-12T00:19:20.454Z,3.58
2022-10-12T00:24:43.036Z,3.47
2022-10-12T00:30:05.518Z,3.92
2022-10-12T00:35:28.894Z,3.70
2022-10-12T00:40:50.869Z,4.05
2022-10-12T00:46:24.859Z,4.20
2022-10-12T00:51:53.243Z,3.80
2022-10-12T00:57:18.152Z,4.05
2022-10-12T01:02:43.230Z,3.93
2022-10-12T01:08:05.040Z,3.90
2022-10-12T01:13:27.155Z,4.15
2022-10-12T01:19:04.427Z,4.03
2022-10-12T01:24:52.166Z,4.50
2022-10-12T01:30:22.238Z,3.80
2022-10-12T01:36:05.189Z,4.07
2022-10-12T01:41:32.260Z,4.20
2022-10-12T01:46:55.545Z,4.25
2022-10-12T01:52:32.240Z,3.83
2022-10-12T01:58:02.894Z,3.97
2022-10-12T02:03:49.694Z,4.15
2022-10-12T02:09:41.619Z,4.25
2022-10-12T02:15:07.747Z,4.32
2022-10-12T02:20:29.425Z,4.05
2022-10-12T02:25:53.740Z,3.97
2022-10-12T02:31:25.794Z,3.95
2022-10-12T02:36:56.572Z,3.63
2022-10-12T02:42:24.942Z,3.90
2022-10-12T02:47:48.147Z,3.88
2022-10-12T02:53:12.748Z,3.88
2022-10-12T02:58:34.611Z,3.95
2022-10-12T03:03:56.305Z,3.90
2022-10-12T03:09:17.959Z,3.95
2022-10-12T03:14:40.219Z,4.15
2022-10-12T03:20:01.890Z,3.63
2022-10-12T03:25:23.553Z,3.85
2022-10-12T03:30:45.292Z,3.67
2022-10-12T03:36:08.222Z,3.42
2022-10-12T03:41:29.961Z,3.70
2022-10-12T03:46:51.686Z,3.75
2022-10-12T03:52:13.311Z,3.80
2022-10-12T03:57:35.210Z,3.53
2022-10-12T04:02:57.205Z,3.55
2022-10-12T04:08:18.924Z,3.47
2022-10-12T04:13:40.616Z,3.67
2022-10-12T04:19:02.810Z,3.67
2022-10-12T04:24:24.506Z,3.75
2022-10-12T04:29:46.320Z,3.22
2022-10-12T04:35:08.170Z,3.78
2022-10-12T04:40:30.222Z,3.40
2022-10-12T04:45:59.435Z,3.35
2022-10-12T04:51:21.163Z,3.15
2022-10-12T04:56:47.508Z,3.40
2022-10-12T05:02:09.827Z,3.17
2022-10-12T05:07:31.490Z,3.25
2022-10-12T05:12:53.152Z,3.00
2022-10-12T05:18:14.865Z,3.25
2022-10-12T05:23:36.506Z,3.10
2022-10-12T05:28:58.398Z,2.90
2022-10-12T05:34:20.450Z,2.88
2022-10-12T05:39:42.238Z,3.75
2022-10-12T05:45:05.077Z,2.95
2022-10-12T05:50:26.785Z,3.05
2022-10-12T05:55:59.246Z,2.92
2022-10-12T06:01:20.970Z,3.05
2022-10-12T06:06:42.717Z,2.78
2022-10-12T06:12:04.746Z,3.17
2022-10-12T06:17:26.475Z,3.20
2022-10-12T06:22:48.138Z,2.92
2022-10-12T06:28:10.547Z,2.85
2022-10-12T06:33:32.336Z,2.88
2022-10-12T06:38:54.027Z,3.65
2022-10-12T06:44:15.780Z,3.17
2022-10-12T06:49:37.444Z,2.97
2022-10-12T06:54:59.082Z,3.03
2022-10-12T07:00:20.963Z,3.22
2022-10-12T07:05:42.665Z,3.03
2022-10-12T07:11:06.240Z,3.30
2022-10-12T07:16:27.974Z,2.72
2022-10-12T07:21:49.745Z,3.10
2022-10-12T07:27:11.759Z,3.10
2022-10-12T07:32:33.490Z,2.95
2022-10-12T07:37:55.249Z,3.40
2022-10-12T07:43:17.318Z,2.38
2022-10-12T07:48:45.646Z,3.00
2022-10-12T07:54:11.011Z,3.17
2022-10-12T07:59:32.646Z,2.65
2022-10-12T08:04:54.336Z,3.03
2022-10-12T08:10:16.841Z,2.70
2022-10-12T08:15:38.499Z,3.10
2022-10-12T08:21:00.167Z,2.67
2022-10-12T08:26:21.836Z,3.33
2022-10-12T08:31:43.496Z,2.60
2022-10-12T08:37:05.158Z,2.78
2022-10-12T08:43:04.989Z,2.85
2022-10-12T08:48:34.755Z,3.13
2022-10-12T08:53:59.160Z,3.40
2022-10-12T08:59:21.124Z,2.72
2022-10-12T09:05:08.631Z,3.22
2022-10-12T09:10:45.106Z,3.00
2022-10-12T09:16:25.472Z,2.75
2022-10-12T09:21:48.941Z,2.70
2022-10-12T09:27:16.354Z,3.10
2022-10-12T09:32:49.398Z,3.00
2022-10-12T09:38:11.979Z,3.22
2022-10-12T09:43:33.786Z,2.88
2022-10-12T09:49:00.178Z,3.00
2022-10-12T09:54:28.698Z,3.47
2022-10-12T09:59:50.529Z,2.83
2022-10-12T10:05:25.903Z,2.75
2022-10-12T10:11:06.161Z,3.37
2022-10-12T10:16:29.360Z,3.10
2022-10-12T10:21:51.286Z,2.80
2022-10-12T10:27:30.946Z,2.97
2022-10-12T10:33:09.123Z,3.33
2022-10-12T10:39:01.222Z,3.03
2022-10-12T10:44:33.992Z,3.08
2022-10-12T10:49:57.705Z,3.80
2022-10-12T10:55:21.070Z,4.03
2022-10-12T11:00:49.240Z,4.47
2022-10-12T11:06:20.136Z,3.80
2022-10-12T11:11:44.167Z,4.05
2022-10-12T11:17:12.966Z,3.47
2022-10-12T11:22:45.110Z,3.90
2022-10-12T11:28:11.053Z,3.92
2022-10-12T11:33:39.500Z,3.47
2022-10-12T11:39:18.030Z,3.95
2022-10-12T11:44:47.735Z,3.88
2022-10-12T11:50:39.735Z,2.72
2022-10-12T11:56:21.895Z,3.75
2022-10-12T12:02:11.887Z,2.83
2022-10-12T12:07:41.355Z,2.92
2022-10-12T12:13:13.211Z,3.03
2022-10-12T12:19:09.890Z,2.80
2022-10-12T12:24:31.640Z,3.03
2022-10-12T12:29:54.330Z,2.63
2022-10-12T12:35:24.254Z,2.88
2022-10-12T12:41:05.904Z,3.00
2022-10-12T12:46:52.434Z,2.42
2022-10-12T12:52:29.541Z,2.80
2022-10-12T12:58:06.176Z,2.65
2022-10-12T13:03:52.454Z,2.10
2022-10-12T13:09:16.844Z,2.60
2022-10-12T13:14:54.761Z,2.60
2022-10-12T13:20:23.632Z,2.63
2022-10-12T13:26:06.619Z,2.47
2022-10-12T13:31:36.925Z,2.40
2022-10-12T13:37:01.373Z,2.60
2022-10-12T13:42:28.009Z,2.70
2022-10-12T13:47:49.687Z,2.40
2022-10-12T13:53:15.111Z,2.50
2022-10-12T13:58:37.082Z,2.90
2022-10-12T14:04:05.263Z,2.25
2022-10-12T14:09:31.257Z,2.38
2022-10-12T14:14:53.951Z,2.30
2022-10-12T14:20:35.010Z,2.45
2022-10-12T14:25:57.331Z,2.45
2022-10-12T14:31:19.154Z,2.40
2022-10-12T14:36:40.849Z,2.88
2022-10-12T14:42:19.256Z,2.58
2022-10-12T14:47:43.037Z,2.78
2022-10-12T14:53:10.207Z,2.28
2022-10-12T14:58:31.863Z,2.53
2022-10-12T15:03:53.509Z,2.50
2022-10-12T15:09:15.186Z,2.30
2022-10-12T15:14:36.817Z,2.92
2022-10-12T15:19:58.549Z,2.67
2022-10-12T15:25:23.912Z,2.88
2022-10-12T15:31:15.397Z,3.00
2022-10-12T15:36:28.314Z,3.08
2022-10-12T15:41:49.998Z,2.65
2022-10-12T15:47:12.065Z,3.58
2022-10-12T15:52:33.947Z,3.33
2022-10-12T15:57:56.674Z,3.33
2022-10-12T16:03:25.562Z,2.70
2022-10-12T16:08:47.844Z,3.13
2022-10-12T16:14:14.495Z,3.22
2022-10-12T16:19:36.129Z,3.15
2022-10-12T16:24:57.809Z,3.72
2022-10-12T16:30:20.249Z,3.47
2022-10-12T16:35:42.191Z,3.17
2022-10-12T16:41:11.551Z,3.63
2022-10-12T16:46:33.265Z,3.30
2022-10-12T16:51:55.247Z,2.75
2022-10-12T16:57:16.928Z,3.17
2022-10-12T17:02:39.068Z,3.50
2022-10-12T17:08:01.112Z,3.75
2022-10-12T17:13:22.782Z,3.70
2022-10-12T17:18:44.567Z,3.22
2022-10-12T17:24:06.509Z,2.97
2022-10-12T17:29:30.053Z,3.13
2022-10-12T17:34:51.755Z,3.47
2022-10-12T17:40:13.432Z,2.95
2022-10-12T17:45:35.070Z,3.20
2022-10-12T17:51:09.521Z,3.50
2022-10-12T17:56:31.318Z,2.72
2022-10-12T18:01:53.602Z,3.20
2022-10-12T18:07:15.585Z,2.90
2022-10-12T18:12:37.668Z,2.92
2022-10-12T18:17:59.362Z,3.20
2022-10-12T18:23:21.129Z,2.85
2022-10-12T18:28:42.926Z,2.72
2022-10-12T18:34:04.715Z,2.78
2022-10-12T18:39:26.377Z,3.05
2022-10-12T18:44:48.093Z,2.63
2022-10-12T18:50:09.938Z,2.42
2022-10-12T18:55:32.320Z,3.13
2022-10-12T19:00:55.269Z,3.28
2022-10-12T19:06:20.122Z,3.08
2022-10-12T19:11:41.880Z,3.40
2022-10-12T19:17:03.563Z,2.45
2022-10-12T19:22:26.351Z,2.25
2022-10-12T19:27:48.447Z,2.40
2022-10-12T19:33:10.119Z,2.17
2022-10-12T19:38:31.858Z,2.45
2022-10-12T19:43:53.827Z,2.03
2022-10-12T19:49:17.191Z,1.90
2022-10-12T19:54:38.865Z,2.05
2022-10-12T20:00:00.529Z,2.25
2022-10-12T20:05:22.184Z,1.75
2022-10-12T20:10:43.867Z,1.88
2022-10-12T20:16:06.170Z,2.00
2022-10-12T20:21:28.144Z,1.58
2022-10-12T20:26:49.803Z,2.78
2022-10-12T20:32:11.482Z,1.50
2022-10-12T20:37:33.449Z,2.20
2022-10-12T20:42:56.164Z,1.85
2022-10-12T20:48:18.055Z,2.00
2022-10-12T20:53:39.775Z,1.85
2022-10-12T20:59:02.093Z,1.73
2022-10-12T21:04:25.491Z,1.85
2022-10-12T21:09:47.226Z,2.08
2022-10-12T21:15:09.478Z,1.40
2022-10-12T21:20:31.121Z,1.40
2022-10-12T21:25:53.127Z,1.83
2022-10-12T21:31:15.853Z,1.48
2022-10-12T21:36:38.000Z,1.17
2022-10-12T21:41:59.649Z,1.73
2022-10-12T21:47:21.279Z,1.17
2022-10-12T21:52:42.951Z,1.23
2022-10-12T21:58:04.675Z,0.93
2022-10-12T22:03:26.304Z,1.30
2022-10-12T22:08:53.830Z,1.00
2022-10-12T22:14:18.372Z,0.80
2022-10-12T22:19:40.086Z,1.20
2022-10-12T22:25:01.777Z,1.00
2022-10-12T22:30:23.429Z,0.85
2022-10-12T22:36:00.046Z,0.65
2022-10-12T22:41:23.152Z,1.08
2022-10-12T22:46:44.899Z,0.70
2022-10-12T22:52:06.585Z,0.70
2022-10-12T22:57:30.186Z,0.63
2022-10-12T23:02:51.807Z,0.80
2022-10-12T23:08:15.242Z,0.70
2022-10-12T23:13:38.307Z,0.60
2022-10-12T23:19:02.136Z,0.73
2022-10-12T23:24:23.759Z,0.80
2022-10-12T23:29:46.923Z,0.68
2022-10-12T23:35:08.712Z,0.60
2022-10-12T23:40:30.350Z,0.65
2022-10-12T23:45:51.991Z,0.45
2022-10-12T23:51:13.772Z,0.65
2022-10-12T23:56:35.821Z,0.50
